createdAt,value
2023-03-15T00:02:57.386Z,6.00
2023-03-15T00:06:18.261Z,3.75
2023-03-15T00:09:29.117Z,5.93
2023-03-15T00:12:39.998Z,4.43
2023-03-15T00:15:50.160Z,3.13
2023-03-15T00:19:04.052Z,3.47
2023-03-15T00:22:13.601Z,2.65
2023-03-15T00:25:36.182Z,2.28
2023-03-15T00:28:40.929Z,2.13
2023-03-15T00:31:44.611Z,2.30
2023-03-15T00:34:57.323Z,1.65
2023-03-15T00:38:21.185Z,3.10
2023-03-15T00:41:41.343Z,2.63
2023-03-15T00:45:02.154Z,2.50
2023-03-15T00:48:21.318Z,2.50
2023-03-15T00:51:35.135Z,1.73
2023-03-15T00:54:44.039Z,2.85
2023-03-15T00:57:47.761Z,2.58
2023-03-15T01:00:58.738Z,1.50
2023-03-15T01:04:07.583Z,2.53
2023-03-15T01:07:12.376Z,1.65
2023-03-15T01:10:26.303Z,1.90
2023-03-15T01:13:32.770Z,2.53
2023-03-15T01:16:36.307Z,1.87
2023-03-15T01:19:44.266Z,1.97
2023-03-15T01:23:08.071Z,1.98
2023-03-15T01:26:27.982Z,3.00
2023-03-15T01:29:44.084Z,1.90
2023-03-15T01:33:10.903Z,2.43
2023-03-15T01:36:32.886Z,2.10
2023-03-15T01:39:36.474Z,3.30
2023-03-15T01:43:06.757Z,3.05
2023-03-15T01:46:35.898Z,1.70
2023-03-15T01:50:09.151Z,3.20
2023-03-15T01:53:23.031Z,2.03
2023-03-15T01:56:28.076Z,1.55
2023-03-15T01:59:38.754Z,1.80
2023-03-15T02:02:53.498Z,2.78
2023-03-15T02:06:11.586Z,1.80
2023-03-15T02:09:50.926Z,2.73
2023-03-15T02:13:31.860Z,2.17
2023-03-15T02:17:01.963Z,3.25
2023-03-15T02:20:30.967Z,3.38
2023-03-15T02:23:43.987Z,3.60
2023-03-15T02:27:03.868Z,2.37
2023-03-15T02:30:27.923Z,1.55
2023-03-15T02:33:50.772Z,2.45
2023-03-15T02:37:06.844Z,2.00
2023-03-15T02:40:36.849Z,3.93
2023-03-15T02:43:50.010Z,2.37
2023-03-15T02:47:23.886Z,1.83
2023-03-15T02:50:31.202Z,3.03
2023-03-15T02:53:34.833Z,2.17
2023-03-15T02:56:41.980Z,2.10
2023-03-15T02:59:51.480Z,3.23
2023-03-15T03:03:15.802Z,2.55
2023-03-15T03:06:36.580Z,2.17
2023-03-15T03:09:53.804Z,2.30
2023-03-15T03:12:59.364Z,2.73
2023-03-15T03:16:09.861Z,3.33
2023-03-15T03:19:16.429Z,2.25
2023-03-15T03:22:29.962Z,2.67
2023-03-15T03:25:37.665Z,3.72
2023-03-15T03:28:46.939Z,2.20
2023-03-15T03:32:04.524Z,2.30
2023-03-15T03:35:26.419Z,1.67
2023-03-15T03:38:49.656Z,1.92
2023-03-15T03:42:15.462Z,3.70
2023-03-15T03:45:31.746Z,2.47
2023-03-15T03:48:52.782Z,3.23
2023-03-15T03:52:17.575Z,2.50
2023-03-15T03:55:40.456Z,1.95
2023-03-15T03:58:43.661Z,1.98
2023-03-15T04:02:16.533Z,1.80
2023-03-15T04:05:48.612Z,2.50
2023-03-15T04:09:15.649Z,1.95
2023-03-15T04:12:34.570Z,1.33
2023-03-15T04:15:55.461Z,1.55
2023-03-15T04:19:20.608Z,1.87
2023-03-15T04:22:41.575Z,1.40
2023-03-15T04:26:07.091Z,2.15
2023-03-15T04:29:30.199Z,1.95
2023-03-15T04:32:59.439Z,1.33
2023-03-15T04:36:26.114Z,0.90
2023-03-15T04:39:52.687Z,0.90
2023-03-15T04:43:40.555Z,1.17
2023-03-15T04:47:20.650Z,0.93
2023-03-15T04:50:43.522Z,0.93
2023-03-15T04:54:32.569Z,1.63
2023-03-15T04:58:07.653Z,1.97
2023-03-15T05:01:33.139Z,1.60
2023-03-15T05:05:18.695Z,1.42
2023-03-15T05:09:04.459Z,1.40
2023-03-15T05:12:29.542Z,1.40
2023-03-15T05:16:27.584Z,1.93
2023-03-15T05:19:55.399Z,3.63
2023-03-15T05:23:26.914Z,1.98
2023-03-15T05:27:00.705Z,2.40
2023-03-15T05:30:53.417Z,2.30
2023-03-15T05:34:24.783Z,1.47
2023-03-15T05:37:55.784Z,3.38
2023-03-15T05:41:24.591Z,3.58
2023-03-15T05:44:57.656Z,3.40
2023-03-15T05:48:25.445Z,2.93
2023-03-15T05:52:09.837Z,3.60
2023-03-15T05:55:32.221Z,4.10
2023-03-15T05:59:02.998Z,5.45
2023-03-15T06:02:25.829Z,5.00
2023-03-15T06:05:52.055Z,4.43
2023-03-15T06:09:04.166Z,4.63
2023-03-15T06:12:27.304Z,4.72
2023-03-15T06:15:43.614Z,5.25
2023-03-15T06:19:00.520Z,5.20
2023-03-15T06:22:27.244Z,4.93
2023-03-15T06:25:47.545Z,5.40
2023-03-15T06:29:04.474Z,6.45
2023-03-15T06:32:09.224Z,5.03
2023-03-15T06:35:14.809Z,5.20
2023-03-15T06:38:30.432Z,5.20
2023-03-15T06:41:33.392Z,5.87
2023-03-15T06:44:43.965Z,6.20
2023-03-15T06:48:09.171Z,6.78
2023-03-15T06:51:45.254Z,4.95
2023-03-15T06:55:18.352Z,4.73
2023-03-15T06:58:42.300Z,5.57
2023-03-15T07:02:03.372Z,5.68
2023-03-15T07:05:23.257Z,5.70
2023-03-15T07:08:46.310Z,5.97
2023-03-15T07:12:06.323Z,5.87
2023-03-15T07:15:33.177Z,6.27
2023-03-15T07:18:54.120Z,5.88
2023-03-15T07:22:17.163Z,5.05
2023-03-15T07:25:48.254Z,5.57
2023-03-15T07:29:00.831Z,7.17
2023-03-15T07:32:14.213Z,7.70
2023-03-15T07:35:30.189Z,7.32
2023-03-15T07:39:03.492Z,5.57
2023-03-15T07:42:07.342Z,5.32
2023-03-15T07:45:17.314Z,6.97
2023-03-15T07:48:31.486Z,7.47
2023-03-15T07:51:50.034Z,4.55
2023-03-15T07:55:15.034Z,5.85
2023-03-15T07:58:37.015Z,8.13
2023-03-15T08:02:01.545Z,5.10
2023-03-15T08:05:23.813Z,4.93
2023-03-15T08:08:40.716Z,4.10
2023-03-15T08:11:59.949Z,5.90
2023-03-15T08:15:27.963Z,5.53
2023-03-15T08:18:49.802Z,4.77
2023-03-15T08:22:06.694Z,4.13
2023-03-15T08:25:32.903Z,4.22
2023-03-15T08:28:49.129Z,5.38
2023-03-15T08:31:59.622Z,5.70
2023-03-15T08:35:16.263Z,3.93
2023-03-15T08:38:44.948Z,4.23
2023-03-15T08:42:21.911Z,5.22
2023-03-15T08:46:00.260Z,6.10
2023-03-15T08:49:04.348Z,4.18
2023-03-15T08:52:19.934Z,4.37
2023-03-15T08:55:50.026Z,4.13
2023-03-15T08:59:12.849Z,4.80
2023-03-15T09:02:40.890Z,5.72
2023-03-15T09:06:02.098Z,4.88
2023-03-15T09:09:24.844Z,5.23
2023-03-15T09:12:46.820Z,5.43
2023-03-15T09:16:10.803Z,5.18
2023-03-15T09:19:33.003Z,6.82
2023-03-15T09:22:56.957Z,4.00
2023-03-15T09:26:16.794Z,4.83
2023-03-15T09:29:29.936Z,5.83
2023-03-15T09:32:46.014Z,5.72
2023-03-15T09:36:16.752Z,5.50
2023-03-15T09:39:37.749Z,5.55
2023-03-15T09:43:14.207Z,8.83
2023-03-15T09:46:35.845Z,6.20
2023-03-15T09:50:07.036Z,4.70
2023-03-15T09:53:39.083Z,7.03
2023-03-15T09:57:15.714Z,4.75
2023-03-15T10:00:53.777Z,6.17
2023-03-15T10:04:15.609Z,4.30
2023-03-15T10:07:37.525Z,6.93
2023-03-15T10:11:13.713Z,7.95
2023-03-15T10:14:54.846Z,5.40
2023-03-15T10:18:17.442Z,5.77
2023-03-15T10:21:28.515Z,4.13
2023-03-15T10:24:54.987Z,4.88
2023-03-15T10:28:07.945Z,6.53
2023-03-15T10:31:32.904Z,3.95
2023-03-15T10:34:52.580Z,5.07
2023-03-15T10:38:00.194Z,5.53
2023-03-15T10:41:29.138Z,6.72
2023-03-15T10:44:50.523Z,5.93
2023-03-15T10:48:04.564Z,3.85
2023-03-15T10:51:39.261Z,5.23
2023-03-15T10:54:55.392Z,4.77
2023-03-15T10:59:11.525Z,5.32
2023-03-15T11:02:35.291Z,5.72
2023-03-15T11:05:53.038Z,6.78
2023-03-15T11:09:17.323Z,4.87
2023-03-15T11:12:32.165Z,3.97
2023-03-15T11:16:01.774Z,5.72
2023-03-15T11:19:19.218Z,5.28
2023-03-15T11:22:29.055Z,4.20
2023-03-15T11:25:33.952Z,7.83
2023-03-15T11:28:40.546Z,3.97
2023-03-15T11:31:51.762Z,5.35
2023-03-15T11:35:14.578Z,5.75
2023-03-15T11:38:44.780Z,4.57
2023-03-15T11:41:56.738Z,6.40
2023-03-15T11:45:21.196Z,5.40
2023-03-15T11:48:50.708Z,5.80
2023-03-15T11:52:10.642Z,6.30
2023-03-15T11:55:28.610Z,8.15
2023-03-15T11:58:52.401Z,4.17
2023-03-15T12:02:14.577Z,5.60
2023-03-15T12:05:48.444Z,5.55
2023-03-15T12:08:55.906Z,4.22
2023-03-15T12:12:01.593Z,4.25
2023-03-15T12:15:15.029Z,6.23
2023-03-15T12:18:46.491Z,4.20
2023-03-15T12:21:57.560Z,5.22
2023-03-15T12:25:16.362Z,3.83
2023-03-15T12:28:37.342Z,4.70
2023-03-15T12:32:09.317Z,7.60
2023-03-15T12:35:20.449Z,4.43
2023-03-15T12:38:44.307Z,6.07
2023-03-15T12:41:58.402Z,7.35
2023-03-15T12:45:21.359Z,4.57
2023-03-15T12:48:40.081Z,5.80
2023-03-15T12:51:59.253Z,5.60
2023-03-15T12:55:27.669Z,5.32
2023-03-15T12:58:37.370Z,3.95
2023-03-15T13:01:53.259Z,4.40
2023-03-15T13:05:23.618Z,5.83
2023-03-15T13:08:53.240Z,8.97
2023-03-15T13:12:36.808Z,6.68
2023-03-15T13:16:02.850Z,4.80
2023-03-15T13:19:27.961Z,3.83
2023-03-15T13:22:58.695Z,6.07
2023-03-15T13:26:09.096Z,5.87
2023-03-15T13:29:28.571Z,6.28
2023-03-15T13:32:41.386Z,5.72
2023-03-15T13:35:59.420Z,4.07
2023-03-15T13:39:21.871Z,3.57
2023-03-15T13:42:35.434Z,5.67
2023-03-15T13:45:41.960Z,5.03
2023-03-15T13:48:51.106Z,3.50
2023-03-15T13:52:14.814Z,3.20
2023-03-15T13:55:25.470Z,4.13
2023-03-15T13:58:39.849Z,3.90
2023-03-15T14:02:01.168Z,4.10
2023-03-15T14:05:28.924Z,3.70
2023-03-15T14:08:47.100Z,3.88
2023-03-15T14:12:17.928Z,3.40
2023-03-15T14:15:41.023Z,4.30
2023-03-15T14:18:55.218Z,3.88
2023-03-15T14:22:16.980Z,3.65
2023-03-15T14:25:38.904Z,3.40
2023-03-15T14:28:47.431Z,4.33
2023-03-15T14:31:52.046Z,5.47
2023-03-15T14:35:21.711Z,5.57
2023-03-15T14:38:32.564Z,4.22
2023-03-15T14:41:44.667Z,4.47
2023-03-15T14:44:53.902Z,4.43
2023-03-15T14:48:12.422Z,5.40
2023-03-15T14:51:22.211Z,5.30
2023-03-15T14:54:30.861Z,3.45
2023-03-15T14:57:44.974Z,3.33
2023-03-15T15:01:07.351Z,5.53
2023-03-15T15:04:29.941Z,3.77
2023-03-15T15:07:51.834Z,2.65
2023-03-15T15:11:11.033Z,4.03
2023-03-15T15:14:32.788Z,6.32
2023-03-15T15:17:55.977Z,5.87
2023-03-15T15:21:03.069Z,3.03
2023-03-15T15:24:18.762Z,3.65
2023-03-15T15:27:30.675Z,4.18
2023-03-15T15:30:36.152Z,6.50
2023-03-15T15:33:51.945Z,5.60
2023-03-15T15:37:14.833Z,11.33
2023-03-15T15:40:40.838Z,6.88
2023-03-15T15:44:03.830Z,10.43
2023-03-15T15:47:28.564Z,5.57
2023-03-15T15:50:46.267Z,4.40
2023-03-15T15:54:00.167Z,5.13
2023-03-15T15:57:18.153Z,5.05
2023-03-15T16:00:25.002Z,5.90
2023-03-15T16:03:31.484Z,5.22
2023-03-15T16:06:44.983Z,5.27
2023-03-15T16:10:04.955Z,3.60
2023-03-15T16:13:26.834Z,4.00
2023-03-15T16:16:51.942Z,4.60
2023-03-15T16:20:14.937Z,4.75
2023-03-15T16:23:29.907Z,4.77
2023-03-15T16:26:50.907Z,4.10
2023-03-15T16:29:55.980Z,4.10
2023-03-15T16:33:02.979Z,5.15
2023-03-15T16:36:28.681Z,5.13
2023-03-15T16:39:44.634Z,4.97
2023-03-15T16:43:03.214Z,3.17
2023-03-15T16:46:22.719Z,5.25
2023-03-15T16:49:49.716Z,6.53
2023-03-15T16:53:18.646Z,3.60
2023-03-15T16:56:35.494Z,4.60
2023-03-15T16:59:58.642Z,6.97
2023-03-15T17:03:17.615Z,4.47
2023-03-15T17:06:33.671Z,5.60
2023-03-15T17:10:03.616Z,5.63
2023-03-15T17:13:32.151Z,9.40
2023-03-15T17:16:52.575Z,5.60
2023-03-15T17:20:17.431Z,6.50
2023-03-15T17:23:35.402Z,9.30
2023-03-15T17:26:57.491Z,5.63
2023-03-15T17:30:32.088Z,5.20
2023-03-15T17:33:45.577Z,4.10
2023-03-15T17:37:01.644Z,6.15
2023-03-15T17:40:31.696Z,7.55
2023-03-15T17:43:48.641Z,4.47
2023-03-15T17:47:11.777Z,6.20
2023-03-15T17:50:34.505Z,6.80
2023-03-15T17:53:54.609Z,9.50
2023-03-15T17:57:17.577Z,4.60
2023-03-15T18:00:39.655Z,5.90
2023-03-15T18:03:46.033Z,6.10
2023-03-15T18:06:49.685Z,5.37
2023-03-15T18:09:57.980Z,6.63
2023-03-15T18:13:23.029Z,8.10
2023-03-15T18:16:44.585Z,7.28
2023-03-15T18:20:05.210Z,5.20
2023-03-15T18:23:12.322Z,5.43
2023-03-15T18:26:15.351Z,5.40
2023-03-15T18:29:21.973Z,5.28
2023-03-15T18:32:25.553Z,7.18
2023-03-15T18:35:35.082Z,7.93
2023-03-15T18:38:43.779Z,5.40
2023-03-15T18:41:59.402Z,4.75
2023-03-15T18:45:32.240Z,4.32
2023-03-15T18:48:46.242Z,6.97
2023-03-15T18:52:05.513Z,4.70
2023-03-15T18:55:27.180Z,6.50
2023-03-15T18:58:36.838Z,5.95
2023-03-15T19:01:53.463Z,5.40
2023-03-15T19:05:00.369Z,6.63
2023-03-15T19:08:04.643Z,8.63
2023-03-15T19:11:08.772Z,8.30
2023-03-15T19:14:13.683Z,6.10
2023-03-15T19:17:21.104Z,5.93
2023-03-15T19:20:44.239Z,5.38
2023-03-15T19:23:57.086Z,6.00
2023-03-15T19:27:15.253Z,6.73
2023-03-15T19:30:37.188Z,5.45
2023-03-15T19:34:00.250Z,6.93
2023-03-15T19:37:34.210Z,6.50
2023-03-15T19:40:55.260Z,8.57
2023-03-15T19:44:14.265Z,7.67
2023-03-15T19:47:41.175Z,6.20
2023-03-15T19:51:05.180Z,5.60
2023-03-15T19:54:26.272Z,8.00
2023-03-15T19:57:49.350Z,6.53
2023-03-15T20:01:08.304Z,6.57
2023-03-15T20:04:31.141Z,8.27
2023-03-15T20:07:57.164Z,4.47
2023-03-15T20:11:20.238Z,9.38
2023-03-15T20:14:43.366Z,6.20
2023-03-15T20:18:05.444Z,7.07
2023-03-15T20:21:21.900Z,7.78
2023-03-15T20:24:39.250Z,9.50
2023-03-15T20:28:06.224Z,5.80
2023-03-15T20:31:29.272Z,5.63
2023-03-15T20:34:44.315Z,6.37
2023-03-15T20:38:13.236Z,6.90
2023-03-15T20:41:30.477Z,8.35
2023-03-15T20:44:48.030Z,6.93
2023-03-15T20:48:04.297Z,5.50
2023-03-15T20:51:31.175Z,7.03
2023-03-15T20:54:54.097Z,8.77
2023-03-15T20:58:14.557Z,6.55
2023-03-15T21:01:18.456Z,5.68
2023-03-15T21:04:23.400Z,7.63
2023-03-15T21:07:39.183Z,7.00
2023-03-15T21:11:01.023Z,5.30
2023-03-15T21:14:29.922Z,4.95
2023-03-15T21:17:52.961Z,4.85
2023-03-15T21:21:07.854Z,7.13
2023-03-15T21:24:31.041Z,9.23
2023-03-15T21:27:52.179Z,6.70
2023-03-15T21:31:07.933Z,5.65
2023-03-15T21:34:37.003Z,6.53
2023-03-15T21:37:56.880Z,5.33
2023-03-15T21:41:31.078Z,6.23
2023-03-15T21:44:53.841Z,7.32
2023-03-15T21:48:14.998Z,5.18
2023-03-15T21:51:38.854Z,5.68
2023-03-15T21:54:55.067Z,6.10
2023-03-15T21:58:14.880Z,9.60
2023-03-15T22:01:42.849Z,5.57
2023-03-15T22:05:05.962Z,7.70
2023-03-15T22:08:22.772Z,7.97
2023-03-15T22:11:45.801Z,7.97
2023-03-15T22:15:04.802Z,6.60
2023-03-15T22:18:28.813Z,6.65
2023-03-15T22:21:57.806Z,6.72
2023-03-15T22:25:20.882Z,8.15
2023-03-15T22:28:40.861Z,7.00
2023-03-15T22:32:01.083Z,7.47
2023-03-15T22:35:04.654Z,8.95
2023-03-15T22:38:12.733Z,7.53
2023-03-15T22:41:23.853Z,6.60
2023-03-15T22:44:44.463Z,5.57
2023-03-15T22:47:49.307Z,4.37
2023-03-15T22:51:20.753Z,8.60
2023-03-15T22:54:43.739Z,11.18
2023-03-15T22:58:04.636Z,6.85
2023-03-15T23:01:27.834Z,5.83
2023-03-15T23:04:37.503Z,8.53
2023-03-15T23:07:41.594Z,7.28
2023-03-15T23:10:48.248Z,5.75
2023-03-15T23:14:01.898Z,8.35
2023-03-15T23:17:06.019Z,5.80
2023-03-15T23:20:12.794Z,5.27
2023-03-15T23:23:28.638Z,4.65
2023-03-15T23:26:57.549Z,6.43
2023-03-15T23:30:19.447Z,8.10
2023-03-15T23:33:35.713Z,7.67
2023-03-15T23:37:03.597Z,7.60
2023-03-15T23:40:26.063Z,8.35
2023-03-15T23:43:47.551Z,5.82
2023-03-15T23:47:10.540Z,9.05
2023-03-15T23:50:20.457Z,6.70
2023-03-15T23:53:44.665Z,7.83
2023-03-15T23:57:14.559Z,5.88
